Time;durP1;ratioP1;P1;durP2;ratioP2;P2;SDS_P1;SDS_P2;PMS_P1;PMS_P2;Temp;Humidity;BMP_temperature;BMP_pressure;BME280_temperature;BME280_humidity;BME280_pressure;Samples;Min_cycle;Max_cycle;Signal;HPM_P1;HPM_P2
2021/03/24 00:01:31;;;;;;;1999.90;999.90;;;6.10;99.90;;;;;;4962001;28;20245;-80
2021/03/24 00:03:58;;;;;;;1999.90;999.90;;;6.10;99.90;;;;;;4980560;28;20925;-80
2021/03/24 00:06:23;;;;;;;1999.90;999.90;;;6.10;99.90;;;;;;4962235;28;20163;-80
2021/03/24 00:08:49;;;;;;;1999.90;999.90;;;6.00;99.90;;;;;;4979559;28;20239;-80
2021/03/24 00:11:15;;;;;;;1999.90;999.90;;;5.90;99.90;;;;;;4979428;28;20191;-80
2021/03/24 00:13:42;;;;;;;1999.90;999.90;;;5.80;99.90;;;;;;4979859;28;20222;-81
2021/03/24 00:16:11;;;;;;;1999.90;999.90;;;5.80;99.90;;;;;;4979578;28;20222;-80
2021/03/24 00:18:37;;;;;;;1999.90;999.90;;;5.80;99.90;;;;;;4962245;28;20171;-80
2021/03/24 00:21:03;;;;;;;1999.90;999.90;;;5.80;99.90;;;;;;4979478;28;20210;-80
2021/03/24 00:23:29;;;;;;;1999.90;999.90;;;5.80;99.90;;;;;;4979560;28;20187;-81
2021/03/24 00:25:55;;;;;;;1999.90;999.90;;;5.90;99.90;;;;;;4961840;28;20543;-80
2021/03/24 00:28:21;;;;;;;1999.90;999.90;;;5.80;99.90;;;;;;4979694;28;20218;-80
2021/03/24 00:30:49;;;;;;;1999.90;999.90;;;5.80;99.90;;;;;;4979382;28;20195;-80
2021/03/24 00:33:21;;;;;;;1999.90;999.90;;;5.80;99.90;;;;;;4980142;28;20551;-81
2021/03/24 00:35:48;;;;;;;1999.90;999.90;;;5.70;99.90;;;;;;4979874;28;20536;-81
2021/03/24 00:38:15;;;;;;;1999.90;999.90;;;5.60;99.90;;;;;;4961781;28;20167;-80
2021/03/24 00:40:47;;;;;;;1999.90;999.90;;;5.60;99.90;;;;;;4979279;28;20225;-80
2021/03/24 00:43:13;;;;;;;1999.90;999.90;;;5.60;99.90;;;;;;4962225;28;20160;-80
2021/03/24 00:45:40;;;;;;;1999.90;999.90;;;5.60;99.90;;;;;;4979206;28;20209;-80
2021/03/24 00:48:08;;;;;;;1999.90;999.90;;;5.60;99.90;;;;;;4962175;28;20178;-80
2021/03/24 00:50:35;;;;;;;1999.90;999.90;;;5.60;99.90;;;;;;4979415;28;20254;-81
2021/03/24 00:53:02;;;;;;;1999.90;999.90;;;5.50;99.90;;;;;;4979386;28;20183;-81
2021/03/24 00:55:28;;;;;;;1999.90;999.90;;;5.50;99.90;;;;;;4979290;28;20183;-81
2021/03/24 00:57:54;;;;;;;1999.90;999.90;;;5.50;99.90;;;;;;4980097;28;20171;-81
2021/03/24 01:00:27;;;;;;;1999.90;999.90;;;5.50;99.90;;;;;;4979283;28;20179;-81
2021/03/24 01:02:53;;;;;;;1999.90;999.90;;;5.50;99.90;;;;;;4962151;28;20550;-81
2021/03/24 01:05:20;;;;;;;1999.90;999.90;;;5.50;99.90;;;;;;4961801;28;20166;-81
2021/03/24 01:07:47;;;;;;;1999.90;999.90;;;5.50;99.90;;;;;;4978899;28;20181;-81
2021/03/24 01:10:15;;;;;;;1999.90;999.90;;;5.50;99.90;;;;;;4980454;28;20193;-81
2021/03/24 01:12:41;;;;;;;1999.90;999.90;;;5.50;99.90;;;;;;4978730;28;20224;-81
2021/03/24 01:15:08;;;;;;;1999.90;999.90;;;5.40;99.90;;;;;;4979223;28;20663;-80
2021/03/24 01:17:34;;;;;;;1999.90;999.90;;;5.40;99.90;;;;;;4978418;28;20494;-80
2021/03/24 01:19:59;;;;;;;1999.90;999.90;;;5.30;99.90;;;;;;4978675;28;20574;-80
2021/03/24 01:22:25;;;;;;;1999.90;999.90;;;5.30;99.90;;;;;;4978387;28;20407;-80
2021/03/24 01:24:53;;;;;;;1999.90;999.90;;;5.20;99.90;;;;;;4978376;28;20187;-80
2021/03/24 01:27:19;;;;;;;1999.90;999.90;;;5.20;99.90;;;;;;4978909;28;20246;-80
2021/03/24 01:29:44;;;;;;;1999.90;999.90;;;5.20;99.90;;;;;;4978394;28;20167;-81
2021/03/24 01:32:10;;;;;;;1999.90;999.90;;;5.30;99.90;;;;;;4978126;28;20395;-80
2021/03/24 01:34:35;;;;;;;1999.90;999.90;;;5.20;99.90;;;;;;4978034;28;20593;-80
2021/03/24 01:37:01;;;;;;;1999.90;999.90;;;5.20;99.90;;;;;;4978278;28;20213;-81
2021/03/24 01:39:28;;;;;;;1999.90;999.90;;;5.20;99.90;;;;;;4978482;28;20175;-80
2021/03/24 01:41:53;;;;;;;1999.90;999.90;;;5.20;99.90;;;;;;4978029;28;20399;-80
2021/03/24 01:44:19;;;;;;;1999.90;999.90;;;5.20;99.90;;;;;;4977760;28;20183;-81
2021/03/24 01:46:47;;;;;;;1999.90;999.90;;;5.10;99.90;;;;;;4978728;28;20643;-80
2021/03/24 01:49:28;;;;;;;1999.90;999.90;;;5.20;99.90;;;;;;4978351;28;20166;-81
2021/03/24 01:51:59;;;;;;;1999.90;999.90;;;5.10;99.90;;;;;;4978323;28;20599;-80
2021/03/24 01:54:30;;;;;;;1999.90;999.90;;;5.00;99.90;;;;;;4978046;28;20199;-79
2021/03/24 01:57:00;;;;;;;1999.90;999.90;;;5.00;99.90;;;;;;4978278;28;20152;-80
2021/03/24 01:59:26;;;;;;;1999.90;999.90;;;5.00;99.90;;;;;;4978205;28;20162;-81
2021/03/24 02:01:54;;;;;;;1999.90;999.90;;;5.00;99.90;;;;;;4961050;28;20171;-81
2021/03/24 02:04:20;;;;;;;1999.90;999.90;;;4.90;99.90;;;;;;4978378;28;20246;-80
2021/03/24 02:07:07;;;;;;;1999.90;999.90;;;4.90;99.90;;;;;;4961316;28;20198;-81
2021/03/24 02:09:43;;;;;;;1999.90;999.90;;;4.90;99.90;;;;;;4961338;28;20624;-80
2021/03/24 02:12:20;;;;;;;1999.90;999.90;;;4.90;99.90;;;;;;4963134;28;20171;-81
2021/03/24 02:14:54;;;;;;;1999.90;999.90;;;4.80;99.90;;;;;;4981999;28;20195;-80
2021/03/24 02:17:23;;;;;;;1999.90;999.90;;;4.80;99.90;;;;;;4981816;28;20178;-81
2021/03/24 02:20:08;;;;;;;1999.90;999.90;;;4.80;99.90;;;;;;4981829;28;20163;-81
2021/03/24 02:22:44;;;;;;;1999.90;999.90;;;4.80;99.90;;;;;;4982319;28;20179;-81
2021/03/24 02:25:33;;;;;;;1999.90;999.90;;;4.80;99.90;;;;;;4964610;28;20187;-81
2021/03/24 02:28:03;;;;;;;1999.90;999.90;;;4.80;99.90;;;;;;4982055;28;20155;-81
2021/03/24 02:30:33;;;;;;;1999.90;999.90;;;4.70;99.90;;;;;;4981765;28;20187;-81
2021/03/24 02:33:06;;;;;;;1999.90;999.90;;;4.70;99.90;;;;;;4981105;28;20163;-81
2021/03/24 02:35:36;;;;;;;1999.90;999.90;;;4.70;99.90;;;;;;4981413;28;20202;-81
2021/03/24 02:38:05;;;;;;;1999.90;999.90;;;4.70;99.90;;;;;;4981567;28;20163;-81
2021/03/24 02:40:32;;;;;;;1999.90;999.90;;;4.70;99.90;;;;;;4981745;28;20243;-81
2021/03/24 02:43:00;;;;;;;1999.90;999.90;;;4.70;99.90;;;;;;4981287;28;20258;-80
2021/03/24 02:45:29;;;;;;;1999.90;999.90;;;4.70;99.90;;;;;;4981411;28;20167;-81
2021/03/24 02:47:59;;;;;;;1999.90;999.90;;;4.70;99.90;;;;;;4981755;28;20199;-81
2021/03/24 02:50:26;;;;;;;1999.90;999.90;;;4.70;99.90;;;;;;4981397;28;20183;-81
2021/03/24 02:52:52;;;;;;;1999.90;999.90;;;4.70;99.90;;;;;;4981158;28;20159;-80
2021/03/24 02:55:20;;;;;;;1999.90;999.90;;;4.70;99.90;;;;;;4980982;28;20191;-81
2021/03/24 02:57:46;;;;;;;1999.90;999.90;;;4.70;99.90;;;;;;4981289;28;20179;-81
2021/03/24 03:00:18;;;;;;;1999.90;999.90;;;4.70;99.90;;;;;;4981470;28;20167;-81
2021/03/24 03:02:49;;;;;;;1999.90;999.90;;;4.70;99.90;;;;;;4964427;28;20415;-81
2021/03/24 03:05:31;;;;;;;1999.90;999.90;;;4.70;99.90;;;;;;4963991;28;20203;-81
2021/03/24 03:08:09;;;;;;;1999.90;999.90;;;4.60;99.90;;;;;;4980904;28;20159;-81
2021/03/24 03:10:39;;;;;;;1999.90;999.90;;;4.60;99.90;;;;;;4981176;28;20190;-81
2021/03/24 03:13:15;;;;;;;1999.90;999.90;;;4.50;99.90;;;;;;4981069;28;20170;-81
2021/03/24 03:16:05;;;;;;;1999.90;999.90;;;4.60;99.90;;;;;;4981276;28;20156;-81
2021/03/24 03:18:37;;;;;;;1999.90;999.90;;;4.40;99.90;;;;;;4981934;28;20620;-81
2021/03/24 03:21:13;;;;;;;1999.90;999.90;;;4.50;99.90;;;;;;4981234;28;20159;-81
2021/03/24 03:23:39;;;;;;;1999.90;999.90;;;4.50;99.90;;;;;;4979923;28;20183;-81
2021/03/24 03:26:14;;;;;;;1999.90;999.90;;;4.50;99.90;;;;;;4981176;28;20246;-81
2021/03/24 03:28:44;;;;;;;1999.90;999.90;;;4.40;99.90;;;;;;4980865;28;20159;-80
2021/03/24 03:31:17;;;;;;;1999.90;999.90;;;4.30;99.90;;;;;;4980328;28;20248;-81
2021/03/24 03:33:48;;;;;;;1999.90;999.90;;;4.30;99.90;;;;;;4981099;28;20247;-80
2021/03/24 03:36:15;;;;;;;1999.90;999.90;;;4.30;99.90;;;;;;4980675;28;20203;-81
2021/03/24 03:38:43;;;;;;;1999.90;999.90;;;4.30;99.90;;;;;;4980847;28;20190;-81
2021/03/24 03:41:11;;;;;;;1999.90;999.90;;;4.20;99.90;;;;;;4980232;28;20185;-81
2021/03/24 03:43:41;;;;;;;1999.90;999.90;;;4.10;99.90;;;;;;4980581;28;20245;-81
2021/03/24 03:46:08;;;;;;;1999.90;999.90;;;4.00;99.90;;;;;;4980676;28;20219;-81
2021/03/24 03:48:34;;;;;;;1999.90;999.90;;;4.00;99.90;;;;;;4963361;28;20171;-81
2021/03/24 03:51:03;;;;;;;1999.90;999.90;;;4.00;99.90;;;;;;4962588;28;20202;-81
2021/03/24 03:53:38;;;;;;;1999.90;999.90;;;4.10;99.90;;;;;;4980190;28;20203;-81
2021/03/24 03:56:11;;;;;;;1999.90;999.90;;;4.00;99.90;;;;;;4980720;28;20151;-81
2021/03/24 03:58:50;;;;;;;1999.90;999.90;;;4.00;99.90;;;;;;4981325;28;20166;-81
2021/03/24 04:01:30;;;;;;;1999.90;999.90;;;4.10;99.90;;;;;;4962743;28;20163;-81
2021/03/24 04:04:01;;;;;;;1999.90;999.90;;;4.10;99.90;;;;;;4980180;28;20178;-81
2021/03/24 04:06:35;;;;;;;1999.90;999.90;;;4.20;99.90;;;;;;4979875;28;20230;-81
2021/03/24 04:09:01;;;;;;;1999.90;999.90;;;4.20;99.90;;;;;;4961988;28;20545;-81
2021/03/24 04:11:33;;;;;;;1999.90;999.90;;;4.20;99.90;;;;;;4962658;28;20273;-81
2021/03/24 04:14:02;;;;;;;1999.90;999.90;;;4.20;99.90;;;;;;4980245;28;20230;-81
2021/03/24 04:16:28;;;;;;;1999.90;999.90;;;4.30;99.90;;;;;;4979745;28;20167;-81
2021/03/24 04:19:02;;;;;;;1999.90;999.90;;;4.30;99.90;;;;;;4980049;28;20171;-81
2021/03/24 04:21:30;;;;;;;1999.90;999.90;;;4.30;99.90;;;;;;4980833;28;20247;-81
2021/03/24 04:24:03;;;;;;;1999.90;999.90;;;4.20;99.90;;;;;;4980547;28;20179;-80
2021/03/24 04:26:44;;;;;;;1999.90;999.90;;;4.10;99.90;;;;;;4980186;28;20246;-81
2021/03/24 04:29:20;;;;;;;1999.90;999.90;;;4.10;99.90;;;;;;4981122;28;20155;-81
2021/03/24 04:31:57;;;;;;;1999.90;999.90;;;4.10;99.90;;;;;;4980820;28;20260;-81
2021/03/24 04:34:24;;;;;;;1999.90;999.90;;;4.00;99.90;;;;;;4980233;28;20186;-81
2021/03/24 04:37:01;;;;;;;1999.90;999.90;;;3.90;99.90;;;;;;4979731;28;20312;-82
2021/03/24 04:39:34;;;;;;;1999.90;999.90;;;4.00;99.90;;;;;;4980276;28;20174;-81
2021/03/24 04:42:03;;;;;;;1999.90;999.90;;;4.00;99.90;;;;;;4980212;28;20167;-82
2021/03/24 04:44:32;;;;;;;1999.90;999.90;;;4.00;99.90;;;;;;4979955;28;20191;-82
2021/03/24 04:47:09;;;;;;;1999.90;999.90;;;4.00;99.90;;;;;;4980242;28;20164;-82
2021/03/24 04:49:58;;;;;;;1999.90;999.90;;;4.00;99.90;;;;;;4962748;28;20163;-81
2021/03/24 04:52:26;;;;;;;1999.90;999.90;;;4.00;99.90;;;;;;4979973;28;20171;-81
2021/03/24 04:54:54;;;;;;;1999.90;999.90;;;4.00;99.90;;;;;;4979948;28;20319;-82
2021/03/24 04:57:22;;;;;;;1999.90;999.90;;;3.90;99.90;;;;;;4979657;28;20163;-82
2021/03/24 04:59:54;;;;;;;1999.90;999.90;;;3.80;99.90;;;;;;4979546;28;20170;-79
2021/03/24 05:02:31;;;;;;;1999.90;999.90;;;3.70;99.90;;;;;;4962318;28;20160;-82
2021/03/24 05:05:16;;;;;;;1999.90;999.90;;;3.70;99.90;;;;;;4961813;28;20280;-81
2021/03/24 05:07:46;;;;;;;1999.90;999.90;;;3.70;99.90;;;;;;4961524;28;20175;-81
2021/03/24 05:10:18;;;;;;;1999.90;999.90;;;3.70;99.90;;;;;;4979001;28;20227;-81
2021/03/24 05:12:49;;;;;;;1999.90;999.90;;;3.70;99.90;;;;;;4979262;28;20151;-81
2021/03/24 05:15:20;;;;;;;1999.90;999.90;;;3.60;99.90;;;;;;4978960;28;20678;-81
2021/03/24 05:17:47;;;;;;;1999.90;999.90;;;3.60;99.90;;;;;;4979371;28;20155;-81
2021/03/24 05:20:24;;;;;;;1999.90;999.90;;;3.60;99.90;;;;;;4977510;28;20191;-81
2021/03/24 05:22:51;;;;;;;1999.90;999.90;;;3.60;99.90;;;;;;4979468;28;20158;-81
2021/03/24 05:25:39;;;;;;;1999.90;999.90;;;3.60;99.90;;;;;;4978909;28;20207;-81
2021/03/24 05:28:17;;;;;;;1999.90;999.90;;;3.60;99.90;;;;;;4979258;28;20619;-81
2021/03/24 05:31:14;;;;;;;1999.90;999.90;;;3.50;99.90;;;;;;4978812;28;20167;-81
2021/03/24 05:33:51;;;;;;;1999.90;999.90;;;3.50;99.90;;;;;;4978320;28;20202;-81
2021/03/24 05:36:32;;;;;;;1999.90;999.90;;;3.50;99.90;;;;;;4978893;28;20194;-81
2021/03/24 05:39:16;;;;;;;1999.90;999.90;;;3.40;99.90;;;;;;4979447;28;20156;-81
2021/03/24 05:42:03;;;;;;;1999.90;999.90;;;3.40;99.90;;;;;;4978948;28;20247;-81
2021/03/24 05:45:04;;;;;;;1999.90;999.90;;;3.40;99.90;;;;;;4979042;28;20183;-81
2021/03/24 05:47:49;;;;;;;1999.90;999.90;;;3.50;99.90;;;;;;4981193;28;20563;-80
2021/03/24 05:50:47;;;;;;;1999.90;999.90;;;3.50;99.90;;;;;;4982839;28;20179;-81
2021/03/24 05:53:23;;;;;;;1999.90;999.90;;;3.50;99.90;;;;;;4965025;28;20175;-81
2021/03/24 05:56:01;;;;;;;1999.90;999.90;;;3.60;99.90;;;;;;4982562;28;20151;-81
2021/03/24 05:58:51;;;;;;;1999.90;999.90;;;3.60;99.90;;;;;;4983064;28;20166;-81
2021/03/24 06:01:35;;;;;;;1999.90;999.90;;;3.60;99.90;;;;;;4981884;28;20191;-81
2021/03/24 06:04:21;;;;;;;1999.90;999.90;;;3.60;99.90;;;;;;4965777;28;20634;-81
2021/03/24 06:07:20;;;;;;;1999.90;999.90;;;3.60;99.90;;;;;;4964393;28;20771;-81
2021/03/24 06:10:08;;;;;;;1999.90;999.90;;;3.60;99.90;;;;;;4965200;28;20163;-81
2021/03/24 06:12:45;;;;;;;1999.90;999.90;;;3.70;99.90;;;;;;4982497;28;20152;-81
2021/03/24 06:15:56;;;;;;;1999.90;999.90;;;3.70;99.90;;;;;;4965052;28;20254;-81
2021/03/24 06:18:47;;;;;;;1999.90;999.90;;;3.70;99.90;;;;;;4941997;28;20175;-81
2021/03/24 06:21:45;;;;;;;1999.90;999.90;;;3.80;99.90;;;;;;4983977;28;20183;-81
2021/03/24 06:24:44;;;;;;;1999.90;999.90;;;3.90;99.90;;;;;;4983217;28;20273;-81
2021/03/24 06:27:17;;;;;;;1999.90;999.90;;;4.00;99.90;;;;;;4965074;28;20240;-81
2021/03/24 06:30:09;;;;;;;1999.90;999.90;;;4.00;99.90;;;;;;4983123;28;20233;-81
2021/03/24 06:32:56;;;;;;;1999.90;999.90;;;4.10;99.90;;;;;;4979000;28;20180;-81
2021/03/24 06:35:55;;;;;;;1999.90;999.90;;;4.20;99.90;;;;;;4983523;28;20197;-81
2021/03/24 06:38:36;;;;;;;1999.90;999.90;;;4.20;99.90;;;;;;4965747;28;20171;-82
2021/03/24 06:41:49;;;;;;;1999.90;999.90;;;4.20;99.90;;;;;;4965938;28;20198;-81
2021/03/24 06:44:59;;;;;;;1999.90;999.90;;;4.30;99.90;;;;;;4939760;28;20207;-81
2021/03/24 06:47:46;;;;;;;1999.90;999.90;;;4.30;99.90;;;;;;4966116;28;20650;-81
2021/03/24 06:50:34;;;;;;;1999.90;999.90;;;4.30;99.90;;;;;;4982716;28;20619;-81
2021/03/24 06:53:18;;;;;;;1999.90;999.90;;;4.40;99.90;;;;;;4965400;28;20164;-81
2021/03/24 06:56:21;;;;;;;1999.90;999.90;;;4.40;99.90;;;;;;4964635;28;20175;-81
2021/03/24 06:59:24;;;;;;;1999.90;999.90;;;4.50;99.90;;;;;;4964356;28;20190;-81
2021/03/24 07:02:07;;;;;;;1999.90;999.90;;;4.60;99.90;;;;;;4964838;28;20199;-81
2021/03/24 07:05:09;;;;;;;1999.90;999.90;;;4.70;99.90;;;;;;4982154;28;20214;-81
2021/03/24 07:08:02;;;;;;;1999.90;999.90;;;4.80;99.90;;;;;;4965350;28;20163;-82
2021/03/24 07:10:40;;;;;;;1999.90;999.90;;;4.90;99.90;;;;;;4965858;28;20195;-82
2021/03/24 07:18:07;;;;;;;1999.90;999.90;;;4.90;99.90;;;;;;4923285;29;20186;-81
2021/03/24 07:20:39;;;;;;;1999.90;999.90;;;5.10;99.90;;;;;;4970968;28;20662;-81
2021/03/24 07:31:22;;;;;;;1999.90;999.90;;;5.20;99.90;;;;;;4922033;29;20549;-82
2021/03/24 07:37:55;;;;;;;;;;;;;;;;;;;;;
2021/03/24 07:40:51;;;;;;;1999.90;999.90;;;5.50;99.90;;;;;;4883056;29;20201;-81
2021/03/24 07:43:42;;;;;;;1999.90;999.90;;;5.60;99.90;;;;;;4962427;28;20205;-82
2021/03/24 07:50:40;;;;;;;1999.90;999.90;;;5.70;99.90;;;;;;4966629;28;20206;-81
2021/03/24 07:54:16;;;;;;;;;;;;;;;;;;;;;
2021/03/24 07:57:42;;;;;;;1999.90;999.90;;;6.00;99.90;;;;;;4900589;29;20221;-82
2021/03/24 08:07:56;;;;;;;1999.90;999.90;;;6.30;99.90;;;;;;4980149;28;20159;-82
2021/03/24 08:14:50;;;;;;;;;;;;;;;;;;;;;
2021/03/24 08:21:13;;;;;;;1999.90;999.90;;;6.80;99.90;;;;;;4979553;28;20308;-81
2021/03/24 08:24:17;;;;;;;1999.90;999.90;;;6.90;99.90;;;;;;4979173;28;20182;-82
2021/03/24 08:34:43;;;;;;;1999.90;999.90;;;7.30;99.90;;;;;;4967754;23;20612;-81
2021/03/24 08:41:12;;;;;;;1999.90;999.90;;;7.60;99.90;;;;;;4959895;29;20207;-81
2021/03/24 08:44:15;;;;;;;1999.90;999.90;;;7.70;99.90;;;;;;4959730;29;20195;-81
2021/03/24 08:50:42;;;;;;;1999.90;999.90;;;8.00;99.90;;;;;;4927900;29;20183;-81
2021/03/24 08:53:44;;;;;;;1999.90;999.90;;;8.10;99.90;;;;;;4926658;29;20190;-82
2021/03/24 08:57:21;;;;;;;1999.90;999.90;;;8.20;99.90;;;;;;4946280;29;20160;-82
2021/03/24 09:00:43;;;;;;;;;;;;;;;;;;;;;
2021/03/24 09:03:58;;;;;;;1999.90;999.90;;;8.50;99.90;;;;;;4955695;29;20278;-82
2021/03/24 09:07:17;;;;;;;1999.90;999.90;;;8.60;99.90;;;;;;4959830;29;20640;-82
2021/03/24 09:10:43;;;;;;;1999.90;999.90;;;8.70;99.90;;;;;;4959478;29;20168;-82
2021/03/24 09:17:32;;;;;;;1999.90;999.90;;;9.00;99.90;;;;;;4855675;29;20181;-82
2021/03/24 09:20:37;;;;;;;1999.90;999.90;;;9.10;99.90;;;;;;4825728;29;20183;-82
2021/03/24 09:23:54;;;;;;;1999.90;999.90;;;9.30;99.90;;;;;;4940468;29;20179;-82
2021/03/24 09:27:07;;;;;;;;;;;;;;;;;;;;;
2021/03/24 09:30:16;;;;;;;1999.90;999.90;;;9.60;99.90;;;;;;4958805;29;20148;-77
2021/03/24 09:33:25;;;;;;;1999.90;999.90;;;9.70;99.90;;;;;;4941378;29;20171;-82
2021/03/24 09:36:54;;;;;;;;;;;;;;;;;;;;;
2021/03/24 09:44:09;;;;;;;;;;;;;;;;;;;;;
2021/03/24 09:47:05;;;;;;;;;;;;;;;;;;;;;
2021/03/24 09:53:22;;;;;;;1999.90;999.90;;;10.60;99.90;;;;;;4916501;29;20251;-81
2021/03/24 09:56:09;;;;;;;;;;;;;;;;;;;;;
2021/03/24 10:02:34;;;;;;;1999.90;999.90;;;11.10;99.90;;;;;;4881397;29;20209;-81
2021/03/24 10:05:47;;;;;;;1999.90;999.90;;;11.20;99.90;;;;;;4940253;29;20547;-77
2021/03/24 10:08:41;;;;;;;1999.90;999.90;;;11.30;99.90;;;;;;4904451;29;20183;-78
2021/03/24 10:11:24;;;;;;;1999.90;999.90;;;11.40;99.90;;;;;;4956832;29;20168;-79
2021/03/24 10:13:58;;;;;;;1999.90;999.90;;;11.50;99.90;;;;;;4938543;29;20210;-77
2021/03/24 10:17:04;;;;;;;1999.90;999.90;;;11.70;99.90;;;;;;4956375;29;20531;-78
2021/03/24 10:20:04;;;;;;;1999.90;999.90;;;11.90;99.90;;;;;;4940606;29;20179;-78
2021/03/24 10:22:41;;;;;;;1999.90;999.90;;;12.00;99.90;;;;;;4956025;29;20176;-78
2021/03/24 10:25:22;;;;;;;1999.90;999.90;;;12.10;98.60;;;;;;4937620;29;20223;-77
2021/03/24 10:28:11;;;;;;;1999.90;999.90;;;12.20;99.90;;;;;;4939350;29;20206;-78
2021/03/24 10:31:03;;;;;;;1999.90;999.90;;;12.40;98.20;;;;;;4956099;29;20191;-77
2021/03/24 10:34:48;;;;;;;;;;;;;;;;;;;;;
2021/03/24 10:45:19;;;;;;;;;;;;;;;;;;;;;
2021/03/24 10:48:28;;;;;;;1999.90;999.90;;;13.40;95.60;;;;;;4884398;29;20181;-78
2021/03/24 10:51:57;;;;;;;;;;;;;;;;;;;;;
2021/03/24 10:58:55;;;;;;;1999.90;999.90;;;13.80;86.50;;;;;;4837603;29;20180;-78
2021/03/24 11:01:54;;;;;;;1999.90;999.90;;;14.00;79.20;;;;;;4845991;29;20651;-78
2021/03/24 11:16:11;;;;;;;;;;;;;;;;;;;;;
2021/03/24 11:18:57;;;;;;;1999.90;999.90;;;15.20;44.10;;;;;;4884392;29;20508;-80
2021/03/24 11:21:49;;;;;;;1999.90;999.90;;;15.40;45.70;;;;;;4869474;29;20400;-82
2021/03/24 11:24:44;;;;;;;1999.90;999.90;;;15.40;46.80;;;;;;4945050;29;20431;-82
2021/03/24 11:27:40;;;;;;;1999.90;999.90;;;15.60;46.30;;;;;;4944796;29;20419;-82
2021/03/24 11:30:46;;;;;;;1999.90;999.90;;;15.30;42.50;;;;;;4900613;29;20428;-82
2021/03/24 11:33:57;;;;;;;1999.90;999.90;;;15.10;56.70;;;;;;4944474;29;20419;-82
2021/03/24 11:36:58;;;;;;;1999.90;999.90;;;15.70;54.60;;;;;;4933901;29;20423;-82
2021/03/24 11:40:03;;;;;;;1999.90;999.90;;;16.10;29.10;;;;;;4945175;29;20407;-82
2021/03/24 11:42:34;;;;;;;1999.90;999.90;;;16.50;23.00;;;;;;4945193;29;20435;-82
2021/03/24 11:45:28;;;;;;;1999.90;999.90;;;16.60;19.60;;;;;;4943851;29;20470;-82
2021/03/24 11:48:32;;;;;;;1999.90;999.90;;;16.80;16.00;;;;;;4944673;29;20417;-82
2021/03/24 11:51:14;;;;;;;1999.90;999.90;;;16.90;13.60;;;;;;4848894;29;20452;-82
2021/03/24 11:53:54;;;;;;;1999.90;999.90;;;17.10;14.20;;;;;;4849703;29;20496;-82
2021/03/24 11:57:06;;;;;;;1999.90;999.90;;;17.10;12.10;;;;;;4850159;29;20948;-82
2021/03/24 12:06:45;;;;;;;1999.90;999.90;;;17.00;4.00;;;;;;4864694;29;20389;-82
2021/03/24 12:09:35;;;;;;;1999.90;999.90;;;16.70;5.30;;;;;;4879415;29;20491;-82
2021/03/24 12:12:10;;;;;;;1999.90;999.90;;;16.80;10.20;;;;;;4867405;29;20825;-81
2021/03/24 12:18:49;;;;;;;1999.90;999.90;;;17.10;7.60;;;;;;4845549;29;20434;-82
2021/03/24 12:21:54;;;;;;;1999.90;999.90;;;17.30;7.30;;;;;;4868033;29;20437;-81
2021/03/24 12:24:41;;;;;;;1999.90;999.90;;;17.80;6.90;;;;;;4936651;23;21015;-81
2021/03/24 12:30:58;;;;;;;1999.90;999.90;;;18.10;2.40;;;;;;4929652;28;20456;-81
2021/03/24 12:34:01;;;;;;;1999.90;999.90;;;17.60;5.50;;;;;;4958789;29;20537;-79
2021/03/24 12:43:48;;;;;;;1999.90;999.90;;;17.20;5.50;;;;;;4917160;29;20503;-78
2021/03/24 12:47:37;;;;;;;;;;;;;;;;;;;;;
2021/03/24 12:51:16;;;;;;;;;;;;;;;;;;;;;
2021/03/24 13:07:12;;;;;;;1999.90;999.90;;;18.10;1.00;;;;;;4936035;29;20433;-78
2021/03/24 13:09:46;;;;;;;1999.90;999.90;;;17.40;2.70;;;;;;4936427;29;20416;-79
2021/03/24 13:12:59;;;;;;;1999.90;999.90;;;17.50;3.50;;;;;;4937219;29;20499;-78
2021/03/24 13:16:21;;;;;;;;;;;;;;;;;;;;;
2021/03/24 13:19:20;;;;;;;1999.90;999.90;;;17.40;4.00;;;;;;4937355;29;20423;-80
2021/03/24 13:22:07;;;;;;;1999.90;999.90;;;17.30;1.90;;;;;;4937413;29;20411;-80
2021/03/24 13:25:01;;;;;;;1999.90;999.90;;;17.00;1.50;;;;;;4939393;29;20434;-79
2021/03/24 13:27:48;;;;;;;1999.90;999.90;;;17.00;2.00;;;;;;4939085;29;20499;-79
2021/03/24 13:30:44;;;;;;;1999.90;999.90;;;16.90;4.40;;;;;;4940586;29;20406;-80
2021/03/24 13:33:55;;;;;;;1999.90;999.90;;;17.00;2.40;;;;;;4938358;29;20416;-80
2021/03/24 13:36:37;;;;;;;1999.90;999.90;;;16.80;1.40;;;;;;4940724;29;20743;-80
2021/03/24 13:39:35;;;;;;;1999.90;999.90;;;16.90;2.10;;;;;;4923164;29;20445;-80
2021/03/24 13:42:26;;;;;;;1999.90;999.90;;;17.00;4.00;;;;;;4940151;29;20464;-80
2021/03/24 13:44:59;;;;;;;1999.90;999.90;;;17.10;1.80;;;;;;4940646;29;20453;-80
2021/03/24 13:48:01;;;;;;;1999.90;999.90;;;17.10;2.50;;;;;;4940664;29;20403;-80
2021/03/24 13:50:50;;;;;;;1999.90;999.90;;;17.30;2.20;;;;;;4940610;29;20504;-80
2021/03/24 13:53:53;;;;;;;1999.90;999.90;;;17.30;1.00;;;;;;4940352;29;20442;-80
2021/03/24 13:56:52;;;;;;;1999.90;999.90;;;17.60;1.00;;;;;;4940413;29;20810;-80
2021/03/24 14:03:12;;;;;;;1999.90;999.90;;;17.30;1.00;;;;;;4882652;29;20418;-80
2021/03/24 14:05:48;;;;;;;1999.90;999.90;;;17.30;1.00;;;;;;4920297;29;20442;-80
2021/03/24 14:08:25;;;;;;;1999.90;999.90;;;17.10;1.40;;;;;;4942220;29;20890;-83
2021/03/24 14:11:42;;;;;;;1999.90;999.90;;;17.40;3.10;;;;;;4944121;29;20432;-80
2021/03/24 14:14:37;;;;;;;;;;;;;;;;;;;;;
2021/03/24 14:17:28;;;;;;;1999.90;999.90;;;17.60;1.00;;;;;;4944711;29;20501;-80
2021/03/24 14:20:26;;;;;;;1999.90;999.90;;;17.80;1.00;;;;;;4908682;29;20785;-80
2021/03/24 14:23:01;;;;;;;1999.90;999.90;;;18.00;1.00;;;;;;4944076;29;20421;-83
2021/03/24 14:25:40;;;;;;;1999.90;999.90;;;18.00;1.00;;;;;;4944516;29;20423;-80
2021/03/24 14:28:36;;;;;;;1999.90;999.90;;;18.00;1.00;;;;;;4944662;29;20391;-80
2021/03/24 14:31:29;;;;;;;1999.90;999.90;;;18.00;1.00;;;;;;4944459;29;20478;-80
2021/03/24 14:34:29;;;;;;;1999.90;999.90;;;18.00;1.00;;;;;;4944261;29;20441;-80
2021/03/24 14:37:14;;;;;;;1999.90;999.90;;;18.00;1.00;;;;;;4927004;29;20409;-80
2021/03/24 14:39:43;;;;;;;1999.90;999.90;;;18.00;1.00;;;;;;4944253;29;20445;-80
2021/03/24 14:42:20;;;;;;;1999.90;999.90;;;18.10;1.00;;;;;;4944177;29;20409;-79
2021/03/24 14:44:56;;;;;;;1999.90;999.90;;;18.10;1.00;;;;;;4926989;29;20436;-79
2021/03/24 14:48:00;;;;;;;1999.90;999.90;;;18.20;1.00;;;;;;4943570;29;20433;-79
2021/03/24 14:50:44;;;;;;;1999.90;999.90;;;18.30;1.00;;;;;;4942584;29;20468;-81
2021/03/24 14:53:26;;;;;;;1999.90;999.90;;;18.40;1.00;;;;;;4943614;29;20399;-81
2021/03/24 14:56:03;;;;;;;1999.90;999.90;;;18.40;1.00;;;;;;4943289;29;20424;-81
2021/03/24 14:58:35;;;;;;;1999.90;999.90;;;18.40;1.00;;;;;;4943334;29;20393;-81
2021/03/24 15:01:33;;;;;;;1999.90;999.90;;;18.40;1.00;;;;;;4942796;29;20877;-81
2021/03/24 15:04:17;;;;;;;1999.90;999.90;;;18.40;1.00;;;;;;4943162;29;20438;-81
2021/03/24 15:06:44;;;;;;;1999.90;999.90;;;18.40;1.00;;;;;;4943108;29;20393;-81
2021/03/24 15:09:13;;;;;;;1999.90;999.90;;;18.30;1.00;;;;;;4984468;23;20485;-87
2021/03/24 15:12:16;;;;;;;1999.90;999.90;;;18.30;1.00;;;;;;4960621;29;20899;-87
2021/03/24 15:14:51;;;;;;;1999.90;999.90;;;18.30;1.00;;;;;;4943968;29;20494;-87
2021/03/24 15:17:43;;;;;;;1999.90;999.90;;;18.20;1.00;;;;;;4958758;29;20399;-87
2021/03/24 15:20:44;;;;;;;1999.90;999.90;;;18.20;1.00;;;;;;4957493;28;20804;-87
2021/03/24 15:23:34;;;;;;;1999.90;999.90;;;18.10;1.00;;;;;;4929185;29;20915;-87
2021/03/24 15:26:12;;;;;;;1999.90;999.90;;;18.10;1.00;;;;;;4958373;29;20463;-87
2021/03/24 15:28:46;;;;;;;1999.90;999.90;;;18.10;1.00;;;;;;4958058;29;20461;-87
2021/03/24 15:31:44;;;;;;;1999.90;999.90;;;18.10;1.00;;;;;;4959322;29;20434;-87
2021/03/24 15:34:38;;;;;;;1999.90;999.90;;;18.00;1.00;;;;;;4943321;29;20482;-87
2021/03/24 15:37:19;;;;;;;1999.90;999.90;;;17.80;1.00;;;;;;4950121;29;20467;-87
2021/03/24 15:39:56;;;;;;;1999.90;999.90;;;17.80;1.00;;;;;;4951519;29;20446;-87
2021/03/24 15:42:24;;;;;;;1999.90;999.90;;;17.80;1.00;;;;;;4969236;29;20390;-88
2021/03/24 15:45:27;;;;;;;1999.90;999.90;;;17.70;1.00;;;;;;4951160;29;20995;-87
2021/03/24 15:47:53;;;;;;;1999.90;999.90;;;17.60;1.00;;;;;;4967873;29;20438;-87
2021/03/24 15:50:45;;;;;;;1999.90;999.90;;;17.50;1.00;;;;;;4968339;29;20424;-88
2021/03/24 15:53:23;;;;;;;1999.90;999.90;;;17.40;1.00;;;;;;4968692;29;20447;-88
2021/03/24 15:55:50;;;;;;;1999.90;999.90;;;17.30;1.00;;;;;;4967875;29;20390;-88
2021/03/24 15:58:46;;;;;;;1999.90;999.90;;;17.30;1.00;;;;;;4968136;29;20915;-88